»·PEaware :: N319BD KSAN-KPMD

N319BD :: KSAN-KPMD

FLIGHT INFORMATION

Flight Status: Arrived
Operator: Privately registered:
United States
More flights under this callsign
Pilot: Anonymous 30260 (30260)
Aircraft: BOEING 737-700
(B737)
More flights by this aircraft type
Origin: KSAN San Diego Intl-Lindbergh
United States
Destination: KPMD Palmdale AF Plant 42
United States
More flights between these airports :: More routes between these airports
Route: PEBLE6 SLI V459 BERRI V201 PMD
File this flight plan on PilotEdge
Remarks:
Altitude:
(Current/Filed)
16,000ft
Speed:
(Current/Filed)
378kts
Departed: 27-Feb-21 08:18 PM
Arrived: 27-Feb-21 08:58 PM
Distance/Time
Traveled:
123nm/0:40
Distance/Time
To Go:
Arrived

Flight Plot

Page will automatically refresh every two minutes.

Flight plan parsing failed; only flown route is shown


Map Options




Map Legend


Flown Route
Filed Route
Departure Airport
Arrival Airport
Navaid (VOR, NDB)
Fix

Horizontal Profiles

Position Reports

Time Latitude Longitude Heading Altitude Ground
Speed
27-Feb-21 19:46 32.732316 -117.199472 183 17ft 0kts
27-Feb-21 19:47 32.732316 -117.199472 183 17ft 0kts
27-Feb-21 19:48 32.732316 -117.199472 183 17ft 0kts
27-Feb-21 19:49 32.732316 -117.199472 183 17ft 0kts
27-Feb-21 19:50 32.732316 -117.199472 183 17ft 0kts
27-Feb-21 19:51 32.732316 -117.199472 183 17ft 0kts
27-Feb-21 19:52 32.732316 -117.199472 183 17ft 0kts
27-Feb-21 19:53 32.732316 -117.199472 183 17ft 0kts
27-Feb-21 19:54 32.732316 -117.199472 183 17ft 0kts
27-Feb-21 19:55 32.732316 -117.199472 183 17ft 0kts
27-Feb-21 19:56 32.732316 -117.199472 183 17ft 0kts
27-Feb-21 19:57 32.732316 -117.199472 183 17ft 0kts
27-Feb-21 19:58 32.732316 -117.199472 183 17ft 0kts
27-Feb-21 19:59 32.732316 -117.199472 183 17ft 0kts
27-Feb-21 20:00 32.732316 -117.199472 183 17ft 0kts
27-Feb-21 20:01 32.732316 -117.199472 183 17ft 0kts
27-Feb-21 20:02 32.732316 -117.199472 183 17ft 0kts
27-Feb-21 20:03 32.732316 -117.199472 183 17ft 0kts
27-Feb-21 20:04 32.732316 -117.199472 183 17ft 0kts
27-Feb-21 20:05 32.732377 -117.199467 184 17ft 2kts
27-Feb-21 20:06 32.733028 -117.199414 183 17ft 2kts
27-Feb-21 20:07 32.733163 -117.199892 17 17ft 1kts
27-Feb-21 20:08 32.733079 -117.199910 11 17ft 0kts
27-Feb-21 20:09 32.733079 -117.199910 11 17ft 0kts
27-Feb-21 20:10 32.733546 -117.199784 13 17ft 7kts
27-Feb-21 20:11 32.734654 -117.199369 37 17ft 3kts
27-Feb-21 20:12 32.734053 -117.195993 105 19ft 14kts
27-Feb-21 20:13 32.732984 -117.191591 106 20ft 14kts
27-Feb-21 20:14 32.731755 -117.186481 105 18ft 17kts
27-Feb-21 20:15 32.730427 -117.181020 105 17ft 16kts
27-Feb-21 20:16 32.729465 -117.176953 94 22ft 7kts
27-Feb-21 20:17 32.731037 -117.179268 286 21ft 76kts
27-Feb-21 20:18 32.751331 -117.230351 320 2666ft 187kts
27-Feb-21 20:19 32.792975 -117.272208 304 5261ft 233kts
27-Feb-21 20:20 32.852644 -117.299858 332 9183ft 247kts
27-Feb-21 20:21 32.900026 -117.362168 304 11965ft 290kts
27-Feb-21 20:22 32.947576 -117.446229 304 14911ft 315kts
27-Feb-21 20:23 33.005407 -117.547416 305 14968ft 380kts
27-Feb-21 20:24 33.065956 -117.653028 305 15184ft 382kts
27-Feb-21 20:25 33.131045 -117.758024 308 15947ft 390kts
27-Feb-21 20:26 33.213848 -117.842552 334 16009ft 390kts
27-Feb-21 20:27 33.317148 -117.885119 342 16005ft 392kts
27-Feb-21 20:28 33.421975 -117.923004 342 16002ft 392kts
27-Feb-21 20:29 33.525781 -117.960713 342 16000ft 392kts
27-Feb-21 20:30 33.629981 -117.998659 342 15998ft 392kts
27-Feb-21 20:31 33.734570 -118.036843 342 15987ft 393kts
27-Feb-21 20:32 33.835745 -118.084615 333 15980ft 392kts
27-Feb-21 20:34 33.934027 -118.141338 333 15981ft 392kts
27-Feb-21 20:35 34.032677 -118.198227 333 15991ft 393kts
27-Feb-21 20:36 34.131016 -118.255047 333 16004ft 393kts
27-Feb-21 20:37 34.235312 -118.272214 16 16013ft 402kts
27-Feb-21 20:38 34.339343 -118.218659 21 16031ft 402kts
27-Feb-21 20:39 34.441556 -118.164628 21 16062ft 401kts
27-Feb-21 20:40 34.536217 -118.114356 20 16026ft 333kts
27-Feb-21 20:41 34.616068 -118.065330 39 14504ft 315kts
27-Feb-21 20:42 34.644651 -117.965215 91 12882ft 312kts
27-Feb-21 20:43 34.637159 -117.860885 100 11180ft 309kts
27-Feb-21 20:44 34.617975 -117.761382 101 9478ft 299kts
27-Feb-21 20:45 34.600083 -117.666789 101 7988ft 274kts
27-Feb-21 20:46 34.584291 -117.578523 101 6633ft 247kts
27-Feb-21 20:47 34.570670 -117.497767 101 6059ft 245kts
27-Feb-21 20:48 34.600588 -117.444832 331 6062ft 220kts
27-Feb-21 20:49 34.623558 -117.519496 280 6055ft 213kts
27-Feb-21 20:50 34.636272 -117.595829 280 6054ft 212kts
27-Feb-21 20:51 34.650960 -117.684104 281 6051ft 214kts
27-Feb-21 20:52 34.650281 -117.756764 265 6081ft 218kts
27-Feb-21 20:53 34.645699 -117.830288 267 6016ft 219kts
27-Feb-21 20:54 34.641210 -117.903305 267 5704ft 214kts
27-Feb-21 20:54 34.638256 -117.961220 270 4246ft 193kts
27-Feb-21 20:55 34.635916 -118.016231 265 3334ft 140kts
27-Feb-21 20:57 34.632909 -118.070906 266 2593ft 137kts
27-Feb-21 20:58 34.631482 -118.097342 265 2519ft 20kts
27-Feb-21 20:58 34.634470 -118.097954 8 2517ft 12kts
27-Feb-21 21:00 34.636002 -118.096932 87 2513ft 4kts
27-Feb-21 21:01 34.636004 -118.096902 87 2513ft 0kts
27-Feb-21 21:01 34.636004 -118.096902 87 2513ft 0kts

Navigation Log

Ident Type
Flight plan parsing failed, navigation log unavailable